Time;durP1;ratioP1;P1;durP2;ratioP2;P2;SDS_P1;SDS_P2;PMS_P1;PMS_P2;Temp;Humidity;BMP_temperature;BMP_pressure;BME280_temperature;BME280_humidity;BME280_pressure;Samples;Min_cycle;Max_cycle;Signal;HPM_P1;HPM_P2
2021/06/11 00:04:09;;;;;;;6.50;4.43;;;;;16.10;101612.00;;;;10508329;28;20189;-78
2021/06/11 00:09:14;;;;;;;6.77;4.70;;;;;16.00;101598.00;;;;10508264;28;20701;-78
2021/06/11 00:14:16;;;;;;;8.00;4.70;;;;;16.00;101596.00;;;;10508042;28;20676;-77
2021/06/11 00:19:18;;;;;;;5.73;4.47;;;;;16.00;101598.00;;;;10508417;28;20207;-78
2021/06/11 00:24:20;;;;;;;9.03;4.53;;;;;16.00;101594.00;;;;10491811;28;20674;-78
2021/06/11 00:29:22;;;;;;;6.47;4.20;;;;;16.00;101581.00;;;;10508855;28;20200;-78
2021/06/11 00:34:23;;;;;;;7.30;3.80;;;;;15.90;101578.00;;;;10476420;28;20232;-78
2021/06/11 00:39:25;;;;;;;6.70;4.03;;;;;15.90;101587.00;;;;10466560;28;20295;-78
2021/06/11 00:44:28;;;;;;;9.03;5.43;;;;;15.90;101585.00;;;;10481180;28;20202;-78
2021/06/11 00:49:30;;;;;;;7.40;5.20;;;;;15.80;101590.00;;;;10499140;28;20223;-78
2021/06/11 00:54:33;;;;;;;9.27;5.47;;;;;15.80;101577.00;;;;10489882;28;20229;-78
2021/06/11 00:59:36;;;;;;;7.47;5.10;;;;;15.90;101582.00;;;;10473310;28;20227;-78
2021/06/11 01:04:38;;;;;;;9.07;4.80;;;;;15.90;101574.00;;;;10493721;28;20194;-78
2021/06/11 01:09:41;;;;;;;9.40;5.27;;;;;15.80;101580.00;;;;10492819;28;20216;-79
2021/06/11 01:14:43;;;;;;;10.07;6.10;;;;;15.80;101570.00;;;;10527366;28;20200;-79
2021/06/11 01:19:49;;;;;;;7.90;5.03;;;;;15.70;101580.00;;;;10516669;28;20192;-78
2021/06/11 01:25:13;;;;;;;8.20;4.50;;;;;15.70;101579.00;;;;10503328;28;20648;-79
2021/06/11 01:30:24;;;;;;;5.73;4.17;;;;;15.50;101582.00;;;;10458531;28;20193;-79
2021/06/11 01:35:33;;;;;;;8.07;4.37;;;;;15.40;101575.00;;;;10492224;28;20553;-78
2021/06/11 01:40:37;;;;;;;7.40;4.67;;;;;15.20;101572.00;;;;10491403;28;20194;-79
2021/06/11 01:45:38;;;;;;;9.77;5.13;;;;;15.10;101568.00;;;;10515523;28;20246;-79
2021/06/11 01:50:41;;;;;;;9.37;5.60;;;;;15.10;101565.00;;;;10499400;28;20644;-78
2021/06/11 01:55:43;;;;;;;10.30;5.77;;;;;15.10;101561.00;;;;10498528;28;20223;-79
2021/06/11 02:00:46;;;;;;;13.77;6.90;;;;;15.10;101565.00;;;;10497634;28;20655;-78
2021/06/11 02:05:48;;;;;;;11.00;6.07;;;;;15.10;101570.00;;;;10515506;28;20185;-79
2021/06/11 02:10:51;;;;;;;11.33;5.93;;;;;15.10;101562.00;;;;10498258;28;20287;-78
2021/06/11 02:15:55;;;;;;;11.23;6.60;;;;;15.00;101560.00;;;;10531319;28;20208;-79
2021/06/11 02:20:57;;;;;;;12.93;5.77;;;;;15.00;101558.00;;;;10515064;28;20662;-79
2021/06/11 02:26:00;;;;;;;10.70;6.27;;;;;14.90;101554.00;;;;10530024;28;20201;-79
2021/06/11 02:31:02;;;;;;;12.33;5.97;;;;;14.90;101550.00;;;;10514249;28;20197;-79
2021/06/11 02:36:05;;;;;;;11.70;6.13;;;;;14.90;101539.00;;;;10513895;28;20224;-79
2021/06/11 02:41:09;;;;;;;13.93;6.47;;;;;14.90;101548.00;;;;10530778;28;20551;-79
2021/06/11 02:46:20;;;;;;;13.20;6.43;;;;;14.90;101538.00;;;;10514839;28;20189;-79
2021/06/11 02:51:28;;;;;;;16.47;6.97;;;;;14.90;101537.00;;;;10513885;28;20208;-79
2021/06/11 02:56:40;;;;;;;14.67;7.07;;;;;14.90;101537.00;;;;10488200;28;20221;-79
2021/06/11 03:01:50;;;;;;;13.70;7.17;;;;;14.90;101523.00;;;;10455948;28;20220;-79
2021/06/11 03:06:53;;;;;;;15.80;7.97;;;;;14.90;101516.00;;;;10472621;28;20205;-79
2021/06/11 03:11:57;;;;;;;17.57;6.77;;;;;14.90;101516.00;;;;10472685;28;20284;-80
2021/06/11 03:17:01;;;;;;;19.67;7.10;;;;;14.90;101519.00;;;;10491935;28;20219;-79
2021/06/11 03:22:08;;;;;;;20.13;7.33;;;;;14.90;101501.00;;;;10496238;28;20189;-79
2021/06/11 03:27:13;;;;;;;19.93;7.67;;;;;15.00;101502.00;;;;10487580;28;20201;-79
2021/06/11 03:32:24;;;;;;;18.53;7.67;;;;;15.00;101505.00;;;;10469708;28;20217;-79
2021/06/11 03:37:27;;;;;;;13.67;7.30;;;;;14.90;101496.00;;;;10469975;28;20711;-80
2021/06/11 03:42:30;;;;;;;16.03;6.77;;;;;14.90;101494.00;;;;10453654;28;20203;-79
2021/06/11 03:47:34;;;;;;;17.13;6.83;;;;;14.90;101504.00;;;;10468965;28;20202;-79
2021/06/11 03:52:39;;;;;;;19.63;7.10;;;;;15.00;101497.00;;;;10469603;28;20197;-79
2021/06/11 03:57:46;;;;;;;13.27;6.07;;;;;15.10;101499.00;;;;10485285;28;20217;-79
2021/06/11 04:02:48;;;;;;;15.43;6.97;;;;;15.20;101505.00;;;;10452788;28;20206;-79
2021/06/11 04:07:56;;;;;;;16.50;9.87;;;;;15.30;101492.00;;;;10469720;28;20185;-79
2021/06/11 04:13:38;;;;;;;18.07;8.07;;;;;15.70;101489.00;;;;10469640;28;20185;-79
2021/06/11 04:18:41;;;;;;;9.40;6.20;;;;;16.00;101495.00;;;;10468525;28;20221;-80
2021/06/11 04:23:44;;;;;;;13.53;6.60;;;;;16.10;101491.00;;;;10491375;28;20587;-80
2021/06/11 04:28:46;;;;;;;14.70;7.33;;;;;16.20;101497.00;;;;10476584;28;20194;-79
2021/06/11 04:33:48;;;;;;;14.83;7.23;;;;;16.40;101501.00;;;;10478006;28;20236;-79
2021/06/11 04:39:03;;;;;;;17.87;7.70;;;;;16.50;101502.00;;;;10517704;28;20263;-79
2021/06/11 04:44:06;;;;;;;11.53;6.77;;;;;16.70;101504.00;;;;10502047;28;20196;-78
2021/06/11 04:49:10;;;;;;;15.87;8.13;;;;;16.80;101495.00;;;;10511950;28;20189;-78
2021/06/11 04:54:11;;;;;;;10.40;6.43;;;;;17.10;101495.00;;;;10518789;28;20189;-78
2021/06/11 04:59:13;;;;;;;12.97;6.87;;;;;17.40;101502.00;;;;10535981;28;20196;-78
2021/06/11 05:04:15;;;;;;;12.33;6.63;;;;;17.80;101504.00;;;;10502081;28;20204;-78
2021/06/11 05:09:17;;;;;;;13.77;6.97;;;;;18.30;101506.00;;;;10516124;28;20185;-78
2021/06/11 05:14:19;;;;;;;10.50;6.70;;;;;18.70;101507.00;;;;10475379;28;20268;-78
2021/06/11 05:19:21;;;;;;;15.93;7.37;;;;;19.00;101527.00;;;;10500627;28;20203;-78
2021/06/11 05:24:23;;;;;;;19.90;8.33;;;;;19.20;101515.00;;;;10466148;28;20220;-78
2021/06/11 05:29:25;;;;;;;20.10;8.83;;;;;19.40;101523.00;;;;10516825;28;20189;-79
2021/06/11 05:34:27;;;;;;;14.30;8.05;;;;;19.80;101529.00;;;;10490310;28;20316;-79
2021/06/11 05:39:29;;;;;;;14.02;7.03;;;;;20.20;101529.00;;;;10491753;28;20672;-79
2021/06/11 05:44:31;;;;;;;8.82;6.53;;;;;20.50;101518.00;;;;10473618;28;20189;-79
2021/06/11 05:49:33;;;;;;;9.00;6.40;;;;;20.80;101522.00;;;;10515641;28;20193;-79
2021/06/11 05:54:35;;;;;;;12.48;6.63;;;;;21.20;101524.00;;;;10526549;28;20662;-79
2021/06/11 05:59:37;;;;;;;8.48;4.95;;;;;21.60;101525.00;;;;10456999;28;20200;-79
2021/06/11 06:04:40;;;;;;;9.02;5.78;;;;;21.50;101533.00;;;;10473060;28;20189;-79
2021/06/11 06:09:42;;;;;;;9.07;5.90;;;;;21.90;101537.00;;;;10472368;28;20204;-79
2021/06/11 06:14:44;;;;;;;6.60;4.97;;;;;22.40;101529.00;;;;10527211;28;20205;-80
2021/06/11 06:19:46;;;;;;;6.40;4.57;;;;;22.90;101528.00;;;;10514547;28;20205;-79
2021/06/11 06:25:10;;;;;;;6.57;4.20;;;;;23.20;101533.00;;;;10511466;28;20193;-79
2021/06/11 06:30:14;;;;;;;8.60;4.00;;;;;23.40;101528.00;;;;10471000;28;20197;-80
2021/06/11 06:35:17;;;;;;;6.75;3.75;;;;;23.60;101522.00;;;;10493142;28;20235;-79
2021/06/11 06:40:19;;;;;;;5.80;4.40;;;;;23.90;101517.00;;;;10496611;28;20188;-80
2021/06/11 06:45:22;;;;;;;7.13;4.22;;;;;24.50;101507.00;;;;10512030;28;20682;-80
2021/06/11 06:50:23;;;;;;;6.93;4.45;;;;;25.00;101502.00;;;;10496620;28;20193;-80
2021/06/11 06:55:25;;;;;;;6.80;4.97;;;;;25.40;101503.00;;;;10529468;28;20679;-79
2021/06/11 07:00:27;;;;;;;8.18;5.80;;;;;25.80;101500.00;;;;10511745;28;20193;-80
2021/06/11 07:05:29;;;;;;;12.27;7.60;;;;;25.90;101500.00;;;;10529045;28;20196;-80
2021/06/11 07:10:31;;;;;;;10.02;6.28;;;;;26.10;101488.00;;;;10494528;28;20192;-80
2021/06/11 07:15:33;;;;;;;10.50;7.13;;;;;26.60;101476.00;;;;10523104;28;20223;-79
2021/06/11 07:20:35;;;;;;;13.50;8.02;;;;;26.70;101473.00;;;;10511151;28;20204;-77
2021/06/11 07:25:37;;;;;;;10.77;7.40;;;;;26.90;101465.00;;;;10493308;28;20185;-80
2021/06/11 07:30:39;;;;;;;10.93;7.47;;;;;26.60;101476.00;;;;10452029;28;20189;-77
2021/06/11 07:35:41;;;;;;;8.25;5.93;;;;;26.90;101468.00;;;;10462476;28;20265;-78
2021/06/11 07:40:44;;;;;;;7.03;4.97;;;;;27.10;101472.00;;;;10470487;28;20212;-79
2021/06/11 07:45:47;;;;;;;5.68;3.97;;;;;27.40;101475.00;;;;10475562;28;20653;-79
2021/06/11 07:50:49;;;;;;;9.20;3.55;;;;;27.40;101476.00;;;;10452899;28;20201;-78
2021/06/11 07:55:51;;;;;;;7.45;3.80;;;;;26.80;101485.00;;;;10504476;28;20217;-78
2021/06/11 08:00:54;;;;;;;5.15;2.90;;;;;26.70;101488.00;;;;10485371;28;20201;-79
2021/06/11 08:05:58;;;;;;;8.13;3.30;;;;;26.80;101489.00;;;;10521136;28;20207;-79
2021/06/11 08:11:01;;;;;;;4.68;3.25;;;;;27.20;101478.00;;;;10484993;28;20216;-79
2021/06/11 08:16:03;;;;;;;4.57;2.55;;;;;27.30;101488.00;;;;10506925;28;20213;-79
2021/06/11 08:21:05;;;;;;;3.55;2.17;;;;;28.20;101480.00;;;;10463508;28;20296;-79
2021/06/11 08:26:07;;;;;;;4.47;1.98;;;;;29.30;101476.00;;;;10506137;28;20592;-80
2021/06/11 08:31:11;;;;;;;7.45;2.45;;;;;30.00;101479.00;;;;10469276;28;20193;-79
2021/06/11 08:36:14;;;;;;;3.50;2.10;;;;;30.30;101472.00;;;;10507144;28;20698;-78
2021/06/11 08:41:18;;;;;;;3.22;1.70;;;;;30.60;101468.00;;;;10486343;28;20193;-80
2021/06/11 08:46:21;;;;;;;5.07;1.40;;;;;31.10;101465.00;;;;10491395;28;20189;-80
2021/06/11 08:51:24;;;;;;;2.53;1.50;;;;;31.30;101472.00;;;;10493763;28;20256;-80
2021/06/11 08:56:26;;;;;;;4.32;1.40;;;;;31.40;101476.00;;;;10510368;28;20232;-79
2021/06/11 09:01:28;;;;;;;5.03;1.20;;;;;31.30;101474.00;;;;10515628;28;20193;-79
2021/06/11 09:06:30;;;;;;;2.80;0.95;;;;;31.30;101473.00;;;;10526543;28;20256;-80
2021/06/11 09:11:34;;;;;;;2.22;1.48;;;;;31.50;101474.00;;;;10500440;28;20224;-78
2021/06/11 09:16:46;;;;;;;4.43;1.60;;;;;31.20;101475.00;;;;10496321;28;20224;-79
2021/06/11 09:21:49;;;;;;;2.63;1.40;;;;;31.00;101467.00;;;;10491876;28;20204;-79
2021/06/11 09:26:57;;;;;;;3.55;1.58;;;;;31.80;101468.00;;;;10484063;28;20607;-79
2021/06/11 09:32:21;;;;;;;3.17;1.33;;;;;31.00;101468.00;;;;10512918;28;20228;-79
2021/06/11 09:37:30;;;;;;;2.65;1.80;;;;;31.80;101464.00;;;;10484547;28;20232;-79
2021/06/11 09:42:36;;;;;;;2.45;1.67;;;;;31.00;101457.00;;;;10503415;28;20185;-79
2021/06/11 09:47:44;;;;;;;2.55;1.65;;;;;31.00;101454.00;;;;10537209;28;20247;-80
2021/06/11 09:52:55;;;;;;;3.50;2.10;;;;;30.90;101455.00;;;;10441668;28;20305;-79
2021/06/11 09:58:28;;;;;;;1.65;1.08;;;;;30.90;101446.00;;;;10512584;28;20232;-80
2021/06/11 10:03:35;;;;;;;7.28;1.55;;;;;30.50;101451.00;;;;10485925;28;20240;-80
2021/06/11 10:08:38;;;;;;;2.35;2.10;;;;;31.40;101442.00;;;;10520852;28;20189;-80
2021/06/11 10:13:40;;;;;;;4.07;1.33;;;;;32.00;101451.00;;;;10555209;28;20671;-79
2021/06/11 10:18:42;;;;;;;1.92;1.33;;;;;31.50;101443.00;;;;10507047;28;20227;-80
2021/06/11 10:23:44;;;;;;;1.63;1.40;;;;;32.00;101449.00;;;;10516419;28;20246;-80
2021/06/11 10:28:48;;;;;;;2.50;0.95;;;;;32.40;101448.00;;;;10462323;28;20226;-80
2021/06/11 10:33:52;;;;;;;3.08;1.00;;;;;33.10;101440.00;;;;10492882;28;20316;-80
2021/06/11 10:39:22;;;;;;;2.72;0.70;;;;;32.40;101438.00;;;;10490144;28;20221;-80
2021/06/11 10:44:31;;;;;;;1.10;0.85;;;;;32.10;101436.00;;;;10487904;28;20193;-80
2021/06/11 10:49:56;;;;;;;4.90;1.25;;;;;32.80;101443.00;;;;10516211;28;20405;-80
2021/06/11 10:55:13;;;;;;;1.00;1.00;;;;;31.80;101428.00;;;;10477399;28;20202;-79
2021/06/11 11:00:27;;;;;;;7.03;1.27;;;;;31.90;101423.00;;;;10530965;28;20192;-79
2021/06/11 11:05:31;;;;;;;1.35;1.02;;;;;31.80;101432.00;;;;10483794;28;20199;-79
2021/06/11 11:10:44;;;;;;;1.85;0.80;;;;;31.80;101425.00;;;;10509113;28;20221;-79
2021/06/11 11:15:51;;;;;;;1.13;0.88;;;;;31.60;101433.00;;;;10531547;28;20781;-79
2021/06/11 11:20:53;;;;;;;0.68;0.68;;;;;31.80;101425.00;;;;10480935;28;20204;-79
2021/06/11 11:25:55;;;;;;;2.30;1.00;;;;;32.20;101429.00;;;;10514496;28;20192;-79
2021/06/11 11:30:57;;;;;;;2.35;1.02;;;;;32.40;101427.00;;;;10512810;28;20197;-80
2021/06/11 11:35:59;;;;;;;0.70;0.70;;;;;32.60;101430.00;;;;10512312;28;20575;-80
2021/06/11 11:41:01;;;;;;;1.98;0.75;;;;;32.60;101426.00;;;;10496839;28;20200;-80
2021/06/11 11:46:03;;;;;;;0.90;0.70;;;;;33.10;101407.00;;;;10511857;28;20197;-80
2021/06/11 11:51:12;;;;;;;0.55;0.55;;;;;32.90;101417.00;;;;10518289;28;20192;-80
2021/06/11 11:56:14;;;;;;;0.70;0.70;;;;;33.00;101409.00;;;;10528384;28;20217;-80
2021/06/11 12:01:16;;;;;;;3.17;0.90;;;;;32.80;101408.00;;;;10492843;28;20205;-80
2021/06/11 12:06:20;;;;;;;0.65;0.60;;;;;32.70;101410.00;;;;10533465;28;20184;-80
2021/06/11 12:11:22;;;;;;;2.42;1.05;;;;;32.40;101400.00;;;;10521457;28;20246;-82
2021/06/11 12:16:24;;;;;;;1.30;1.20;;;;;32.50;101401.00;;;;10462072;28;20220;-81
2021/06/11 12:21:26;;;;;;;1.23;1.13;;;;;33.20;101403.00;;;;10517478;28;20286;-82
2021/06/11 12:26:29;;;;;;;1.83;0.98;;;;;32.90;101406.00;;;;10473375;28;20200;-81
2021/06/11 12:31:33;;;;;;;5.38;1.05;;;;;34.00;101410.00;;;;10500864;28;20193;-81
2021/06/11 12:36:37;;;;;;;4.88;1.40;;;;;34.60;101400.00;;;;10511903;28;20276;-81
2021/06/11 12:41:39;;;;;;;4.07;1.35;;;;;35.30;101404.00;;;;10502244;28;20570;-81
2021/06/11 12:46:47;;;;;;;4.40;1.20;;;;;35.20;101404.00;;;;10525681;28;20192;-79
2021/06/11 12:51:52;;;;;;;1.60;1.45;;;;;34.10;101400.00;;;;10519414;28;20204;-78
2021/06/11 12:56:55;;;;;;;1.67;1.10;;;;;34.40;101403.00;;;;10512246;28;20217;-80
2021/06/11 13:01:57;;;;;;;2.13;1.20;;;;;35.00;101400.00;;;;10512942;28;20272;-80
2021/06/11 13:06:59;;;;;;;2.55;1.50;;;;;33.20;101398.00;;;;10527840;28;20193;-81
2021/06/11 13:12:01;;;;;;;2.47;1.60;;;;;32.60;101397.00;;;;10523118;28;20184;-80
2021/06/11 13:17:08;;;;;;;3.38;1.10;;;;;33.10;101386.00;;;;10507230;28;20213;-81
2021/06/11 13:22:10;;;;;;;1.70;1.60;;;;;33.30;101388.00;;;;10498345;28;20200;-81
2021/06/11 13:27:12;;;;;;;1.75;1.50;;;;;33.30;101383.00;;;;10524541;28;20644;-80
2021/06/11 13:32:16;;;;;;;2.63;1.30;;;;;35.30;101375.00;;;;10515334;28;20262;-82
2021/06/11 13:37:18;;;;;;;1.50;1.40;;;;;33.50;101378.00;;;;10520456;28;20217;-82
2021/06/11 13:42:20;;;;;;;2.10;1.90;;;;;31.50;101388.00;;;;10484892;28;20198;-81
2021/06/11 13:47:22;;;;;;;3.00;1.42;;;;;34.60;101368.00;;;;10521738;28;20190;-81
2021/06/11 13:52:24;;;;;;;2.05;1.60;;;;;36.70;101383.00;;;;10490509;28;20250;-80
2021/06/11 13:57:26;;;;;;;2.00;1.38;;;;;33.00;101381.00;;;;10514992;28;20797;-80
2021/06/11 14:02:27;;;;;;;2.53;1.55;;;;;36.00;101380.00;;;;10508533;28;20205;-81
2021/06/11 14:07:29;;;;;;;5.82;1.77;;;;;32.90;101363.00;;;;10521367;28;20193;-80
2021/06/11 14:12:31;;;;;;;3.13;1.38;;;;;37.20;101368.00;;;;10489598;28;20668;-81
2021/06/11 14:17:33;;;;;;;3.78;1.92;;;;;38.80;101370.00;;;;10502237;28;20216;-82
2021/06/11 14:22:36;;;;;;;2.33;1.75;;;;;39.40;101365.00;;;;10472639;28;20292;-82
2021/06/11 14:27:43;;;;;;;2.72;1.27;;;;;39.50;101362.00;;;;10554563;28;20193;-81
2021/06/11 14:32:46;;;;;;;1.88;1.42;;;;;35.40;101366.00;;;;10505087;28;20219;-81
2021/06/11 14:37:48;;;;;;;2.80;1.40;;;;;38.60;101364.00;;;;10539541;28;20220;-81
2021/06/11 14:42:51;;;;;;;1.70;1.60;;;;;39.40;101366.00;;;;10540711;28;20193;-82
2021/06/11 14:47:53;;;;;;;2.30;1.70;;;;;39.40;101371.00;;;;10535955;28;20313;-82
2021/06/11 14:53:02;;;;;;;3.70;1.63;;;;;38.50;101359.00;;;;10488658;28;20196;-82
2021/06/11 14:58:05;;;;;;;2.25;1.73;;;;;39.70;101355.00;;;;10464220;28;20217;-82
2021/06/11 15:03:12;;;;;;;3.42;2.22;;;;;41.00;101341.00;;;;10447586;28;20193;-82
2021/06/11 15:08:14;;;;;;;2.25;2.05;;;;;41.50;101342.00;;;;10515945;28;20188;-81
2021/06/11 15:13:22;;;;;;;5.50;2.10;;;;;39.80;101345.00;;;;10495073;28;20218;-81
2021/06/11 15:18:25;;;;;;;1.60;1.50;;;;;40.40;101340.00;;;;10537528;28;20212;-81
2021/06/11 15:23:29;;;;;;;2.38;2.17;;;;;36.00;101363.00;;;;10517926;28;20664;-80
2021/06/11 15:28:31;;;;;;;3.83;2.38;;;;;33.60;101335.00;;;;10501956;28;20197;-81
2021/06/11 15:33:32;;;;;;;2.83;2.53;;;;;34.20;101340.00;;;;10501409;28;20723;-80
2021/06/11 15:38:34;;;;;;;3.40;3.08;;;;;37.70;101331.00;;;;10500214;28;20246;-80
2021/06/11 15:43:36;;;;;;;5.13;2.45;;;;;37.90;101346.00;;;;10511975;28;20546;-80
2021/06/11 15:48:38;;;;;;;2.20;2.00;;;;;36.70;101352.00;;;;10541037;28;20192;-80
2021/06/11 15:53:45;;;;;;;2.03;1.92;;;;;33.90;101358.00;;;;10479764;28;20288;-80
2021/06/11 15:58:46;;;;;;;4.03;2.40;;;;;32.60;101344.00;;;;10496535;28;20232;-80
2021/06/11 16:03:48;;;;;;;2.00;1.80;;;;;30.80;101348.00;;;;10515851;28;20227;-81
2021/06/11 16:08:50;;;;;;;3.15;2.50;;;;;29.60;101345.00;;;;10505083;28;20280;-80
2021/06/11 16:13:53;;;;;;;3.90;2.28;;;;;29.80;101335.00;;;;10512558;28;20224;-81
2021/06/11 16:18:55;;;;;;;3.10;2.90;;;;;28.80;101351.00;;;;10500116;28;20263;-80
2021/06/11 16:23:57;;;;;;;2.78;2.58;;;;;28.10;101327.00;;;;10502288;28;20644;-80
2021/06/11 16:28:59;;;;;;;8.55;2.90;;;;;28.20;101335.00;;;;10493482;28;20698;-80
2021/06/11 16:34:02;;;;;;;6.38;2.90;;;;;28.20;101332.00;;;;10538667;28;20219;-81
2021/06/11 16:39:05;;;;;;;3.83;2.67;;;;;28.30;101323.00;;;;10486894;28;20217;-80
2021/06/11 16:44:06;;;;;;;2.08;1.88;;;;;28.60;101325.00;;;;10506955;28;20216;-80
2021/06/11 16:49:09;;;;;;;2.50;2.30;;;;;27.90;101334.00;;;;10450329;28;20190;-80
2021/06/11 16:54:11;;;;;;;3.42;2.38;;;;;27.30;101333.00;;;;10480884;28;20196;-81
2021/06/11 16:59:15;;;;;;;2.50;2.30;;;;;27.70;101333.00;;;;10514683;28;20322;-81
2021/06/11 17:04:18;;;;;;;2.70;2.50;;;;;28.10;101327.00;;;;10483208;28;20278;-80
2021/06/11 17:09:20;;;;;;;3.20;2.10;;;;;27.80;101326.00;;;;10495848;28;20270;-80
2021/06/11 17:14:22;;;;;;;2.47;2.35;;;;;27.50;101327.00;;;;10444018;28;20205;-79
2021/06/11 17:19:24;;;;;;;4.20;2.42;;;;;27.50;101330.00;;;;10477835;28;20244;-80
2021/06/11 17:24:27;;;;;;;2.35;2.15;;;;;27.20;101329.00;;;;10466054;28;20209;-80
2021/06/11 17:29:35;;;;;;;3.55;1.88;;;;;27.10;101340.00;;;;10473404;28;20196;-80
2021/06/11 17:34:39;;;;;;;2.65;1.95;;;;;27.00;101339.00;;;;10511312;28;20209;-80
2021/06/11 17:39:43;;;;;;;4.72;1.73;;;;;26.80;101332.00;;;;10516112;28;20209;-80
2021/06/11 17:44:45;;;;;;;3.85;1.90;;;;;26.60;101347.00;;;;10526641;28;20203;-80
2021/06/11 17:49:47;;;;;;;1.45;1.35;;;;;26.40;101351.00;;;;10515196;28;20193;-81
2021/06/11 17:54:50;;;;;;;1.40;1.30;;;;;26.20;101345.00;;;;10506124;28;20198;-80
2021/06/11 17:59:52;;;;;;;2.10;1.13;;;;;26.10;101347.00;;;;10493647;28;20677;-80
2021/06/11 18:04:55;;;;;;;1.35;1.25;;;;;25.70;101352.00;;;;10493598;28;20197;-82
2021/06/11 18:09:58;;;;;;;2.03;1.40;;;;;25.50;101362.00;;;;10492776;28;20197;-79
2021/06/11 18:15:05;;;;;;;2.00;1.10;;;;;25.40;101358.00;;;;10494993;28;20586;-80
2021/06/11 18:20:25;;;;;;;6.53;1.38;;;;;25.40;101356.00;;;;10504307;28;20252;-80
2021/06/11 18:25:30;;;;;;;1.83;1.27;;;;;25.10;101356.00;;;;10500091;28;20207;-79
2021/06/11 18:30:31;;;;;;;2.70;1.30;;;;;25.10;101359.00;;;;10515581;28;20239;-79
2021/06/11 18:35:35;;;;;;;2.00;1.50;;;;;25.00;101367.00;;;;10493996;28;20220;-79
2021/06/11 18:40:41;;;;;;;2.88;1.20;;;;;24.90;101378.00;;;;10463703;28;20228;-79
2021/06/11 18:45:52;;;;;;;1.40;1.23;;;;;24.70;101358.00;;;;10507365;28;20186;-80
2021/06/11 18:51:16;;;;;;;1.88;1.63;;;;;24.50;101363.00;;;;10481200;28;20547;-80
2021/06/11 18:56:19;;;;;;;3.22;1.60;;;;;24.20;101370.00;;;;10497870;28;20205;-80
2021/06/11 19:01:32;;;;;;;1.98;1.88;;;;;23.90;101368.00;;;;10497299;28;20284;-78
2021/06/11 19:06:35;;;;;;;3.83;2.45;;;;;23.60;101370.00;;;;10487469;28;20247;-80
2021/06/11 19:11:40;;;;;;;3.67;2.10;;;;;23.40;101377.00;;;;10502522;28;20418;-80
2021/06/11 19:16:42;;;;;;;3.97;2.40;;;;;23.30;101390.00;;;;10478847;28;20219;-80
2021/06/11 19:21:55;;;;;;;4.85;2.30;;;;;23.10;101393.00;;;;10496949;28;20223;-80
2021/06/11 19:26:57;;;;;;;2.35;2.15;;;;;23.00;101399.00;;;;10512907;28;20277;-80
2021/06/11 19:32:02;;;;;;;3.13;2.10;;;;;23.00;101410.00;;;;10493412;28;20284;-80
2021/06/11 19:37:05;;;;;;;2.38;2.17;;;;;22.90;101416.00;;;;10476163;28;20217;-80
2021/06/11 19:42:16;;;;;;;3.75;2.50;;;;;22.70;101432.00;;;;10498034;28;20220;-80
2021/06/11 19:47:18;;;;;;;3.90;2.40;;;;;22.60;101433.00;;;;10502695;28;20200;-80
2021/06/11 19:52:20;;;;;;;2.92;2.20;;;;;22.60;101441.00;;;;10516765;28;20195;-80
2021/06/11 19:57:24;;;;;;;2.75;2.40;;;;;22.50;101446.00;;;;10548097;28;20203;-79
2021/06/11 20:02:28;;;;;;;5.65;2.50;;;;;22.40;101446.00;;;;10525388;28;20197;-80
2021/06/11 20:07:30;;;;;;;4.25;2.50;;;;;22.30;101444.00;;;;10499140;28;20264;-80
2021/06/11 20:12:35;;;;;;;3.13;2.88;;;;;22.20;101449.00;;;;10496858;28;20197;-80
2021/06/11 20:17:37;;;;;;;3.72;2.45;;;;;22.10;101461.00;;;;10509794;28;20229;-79
2021/06/11 20:22:39;;;;;;;2.40;2.20;;;;;22.00;101473.00;;;;10469783;28;20189;-79
2021/06/11 20:27:41;;;;;;;3.83;2.60;;;;;22.00;101473.00;;;;10474200;28;20238;-79
2021/06/11 20:32:42;;;;;;;3.88;2.10;;;;;21.80;101478.00;;;;10499193;28;20216;-80
2021/06/11 20:37:44;;;;;;;2.85;2.50;;;;;21.70;101487.00;;;;10535199;28;20209;-79
2021/06/11 20:42:50;;;;;;;4.50;2.13;;;;;21.60;101490.00;;;;10454622;28;20193;-79
2021/06/11 20:47:52;;;;;;;4.35;1.92;;;;;21.50;101494.00;;;;10490329;28;20643;-79
2021/06/11 20:52:54;;;;;;;2.47;1.88;;;;;21.40;101492.00;;;;10475421;28;20189;-79
2021/06/11 20:57:56;;;;;;;3.17;2.10;;;;;21.20;101497.00;;;;10476714;28;20213;-79
2021/06/11 21:02:59;;;;;;;3.22;2.30;;;;;21.10;101502.00;;;;10470360;28;20201;-78
2021/06/11 21:08:02;;;;;;;3.05;1.80;;;;;21.00;101504.00;;;;10500893;28;20184;-79
2021/06/11 21:13:04;;;;;;;6.32;1.70;;;;;20.90;101506.00;;;;10511032;28;20190;-79
2021/06/11 21:18:05;;;;;;;2.40;1.75;;;;;20.80;101497.00;;;;10512621;28;20239;-80
2021/06/11 21:23:11;;;;;;;3.85;1.65;;;;;20.70;101504.00;;;;10500028;28;20204;-79
2021/06/11 21:28:13;;;;;;;4.07;1.60;;;;;20.60;101507.00;;;;10492731;28;20177;-80
2021/06/11 21:33:15;;;;;;;2.53;1.70;;;;;20.50;101513.00;;;;10467654;28;20217;-81
2021/06/11 21:38:17;;;;;;;2.75;1.55;;;;;20.40;101512.00;;;;10527337;28;20213;-80
2021/06/11 21:43:20;;;;;;;3.10;1.92;;;;;20.30;101512.00;;;;10494968;28;20601;-81
2021/06/11 21:48:21;;;;;;;2.97;1.70;;;;;20.10;101517.00;;;;10516355;28;20186;-81
2021/06/11 21:53:37;;;;;;;3.13;1.55;;;;;20.10;101526.00;;;;10509516;28;20194;-81
2021/06/11 21:58:39;;;;;;;3.10;1.88;;;;;19.90;101519.00;;;;10507673;28;20216;-81
2021/06/11 22:03:43;;;;;;;3.28;1.77;;;;;19.80;101522.00;;;;10506634;28;20208;-82
2021/06/11 22:08:45;;;;;;;3.78;1.65;;;;;19.50;101525.00;;;;10532882;28;20559;-81
2021/06/11 22:13:47;;;;;;;2.17;1.70;;;;;19.40;101514.00;;;;10527838;28;20185;-80
2021/06/11 22:18:49;;;;;;;4.00;1.75;;;;;19.30;101516.00;;;;10490409;28;20249;-81
2021/06/11 22:23:54;;;;;;;1.88;1.40;;;;;19.30;101520.00;;;;10494744;28;20190;-81
2021/06/11 22:28:57;;;;;;;3.72;1.80;;;;;19.40;101532.00;;;;10471469;28;20181;-81
2021/06/11 22:33:58;;;;;;;3.22;1.55;;;;;19.40;101528.00;;;;10487286;28;20221;-80
2021/06/11 22:39:02;;;;;;;3.53;1.80;;;;;19.30;101519.00;;;;10531524;28;20227;-81
2021/06/11 22:44:06;;;;;;;2.25;1.48;;;;;19.20;101514.00;;;;10520543;28;20230;-81
2021/06/11 22:49:08;;;;;;;1.95;1.73;;;;;19.20;101510.00;;;;10503089;28;20217;-81
2021/06/11 22:54:12;;;;;;;3.72;2.17;;;;;19.10;101510.00;;;;10490173;28;20638;-81
2021/06/11 22:59:14;;;;;;;4.03;1.70;;;;;19.10;101513.00;;;;10494726;28;20745;-81
2021/06/11 23:04:16;;;;;;;1.85;1.75;;;;;19.00;101517.00;;;;10493373;28;20244;-81
2021/06/11 23:09:18;;;;;;;4.70;2.05;;;;;18.90;101515.00;;;;10465235;28;20192;-82
2021/06/11 23:14:20;;;;;;;2.38;1.88;;;;;18.90;101528.00;;;;10466556;28;20292;-81
2021/06/11 23:19:22;;;;;;;3.35;1.63;;;;;18.80;101518.00;;;;10484863;28;20212;-81
2021/06/11 23:24:24;;;;;;;2.95;1.80;;;;;18.70;101505.00;;;;10519472;28;20192;-81
2021/06/11 23:29:26;;;;;;;4.03;2.00;;;;;18.70;101502.00;;;;10526035;28;20207;-81
2021/06/11 23:34:28;;;;;;;2.70;1.83;;;;;18.60;101505.00;;;;10490156;28;20244;-80
2021/06/11 23:39:30;;;;;;;2.17;1.67;;;;;18.60;101497.00;;;;10521954;28;20212;-81
2021/06/11 23:44:32;;;;;;;2.92;2.08;;;;;18.60;101500.00;;;;10466182;28;20280;-81
2021/06/11 23:49:34;;;;;;;3.58;1.80;;;;;18.50;101491.00;;;;10483563;28;20185;-81
2021/06/11 23:54:35;;;;;;;3.05;1.92;;;;;18.50;101501.00;;;;10468413;28;20195;-81
2021/06/11 23:59:40;;;;;;;3.65;2.10;;;;;18.40;101497.00;;;;10541258;28;20821;-81
